SHT16C EGLL-EGPE
Flight info
| Callsign | SHT16C |
|---|---|
| Flight time | 1h 7m |
| Altitude | 36000 |
| Route | ULTIB T420 TNT UN57 POL UN601 RIBEL DCT SHAPP DCT INREV DCT TLA DCT FOYLE N560 NESDI DCT GUSSI |
| Aircraft | A319/M-SDE3FGHIRWY/LB1 |
Departure
| Time | 2026-05-05 18:53 |
|---|---|
| Airport | London Heathrow Airport (EGLL) |
Arrival
| Time | 2026-05-05 20:01 |
|---|---|
| Airport | Inverness Airport (EGPE) |
| Time | Latitude | Longitude | Altitude | Speed | Heading |
|---|---|---|---|---|---|
| 2026-05-05 18:13 | 51.47398 | -0.48757 | 89 ft | 0 kts | 180° |
| 2026-05-05 18:42 | 51.47399 | -0.48757 | 88 ft | 1 kts | 180° |
| 2026-05-05 18:43 | 51.47423 | -0.48757 | 86 ft | 4 kts | 180° |
| 2026-05-05 18:43 | 51.47449 | -0.48758 | 86 ft | 3 kts | 180° |
| 2026-05-05 18:43 | 51.47471 | -0.48760 | 86 ft | 4 kts | 156° |
| 2026-05-05 18:43 | 51.47486 | -0.48784 | 89 ft | 4 kts | 94° |
| 2026-05-05 18:44 | 51.47486 | -0.48819 | 87 ft | 1 kts | 90° |
| 2026-05-05 18:47 | 51.47486 | -0.48783 | 89 ft | 6 kts | 90° |
| 2026-05-05 18:47 | 51.47487 | -0.48674 | 90 ft | 12 kts | 89° |
| 2026-05-05 18:48 | 51.47488 | -0.48524 | 88 ft | 14 kts | 89° |
| 2026-05-05 18:48 | 51.47408 | -0.48475 | 90 ft | 15 kts | 180° |
| 2026-05-05 18:48 | 51.47293 | -0.48472 | 90 ft | 18 kts | 179° |
| 2026-05-05 18:48 | 51.47164 | -0.48472 | 89 ft | 19 kts | 180° |
| 2026-05-05 18:49 | 51.47043 | -0.48471 | 89 ft | 17 kts | 179° |
| 2026-05-05 18:49 | 51.46922 | -0.48469 | 87 ft | 17 kts | 180° |
| 2026-05-05 18:49 | 51.46819 | -0.48469 | 88 ft | 4 kts | 180° |
| 2026-05-05 18:50 | 51.46817 | -0.48469 | 86 ft | 1 kts | 180° |
| 2026-05-05 18:50 | 51.46798 | -0.48469 | 86 ft | 5 kts | 180° |
| 2026-05-05 18:50 | 51.46754 | -0.48468 | 89 ft | 8 kts | 179° |
| 2026-05-05 18:51 | 51.46689 | -0.48467 | 86 ft | 10 kts | 179° |
| 2026-05-05 18:51 | 51.46610 | -0.48466 | 86 ft | 12 kts | 179° |
| 2026-05-05 18:51 | 51.46525 | -0.48465 | 88 ft | 13 kts | 179° |
| 2026-05-05 18:51 | 51.46478 | -0.48386 | 90 ft | 12 kts | 82° |
| 2026-05-05 18:52 | 51.46479 | -0.48342 | 87 ft | 0 kts | 91° |
| 2026-05-05 18:52 | 51.46479 | -0.48263 | 91 ft | 17 kts | 91° |
| 2026-05-05 18:52 | 51.46480 | -0.47812 | 87 ft | 71 kts | 90° |
| 2026-05-05 18:52 | 51.46484 | -0.46702 | 90 ft | 128 kts | 89° |
| 2026-05-05 18:53 | 51.46491 | -0.45010 | 210 ft | 164 kts | 88° |
| 2026-05-05 18:53 | 51.46510 | -0.43178 | 890 ft | 164 kts | 87° |
| 2026-05-05 18:53 | 51.46658 | -0.41384 | 1587 ft | 163 kts | 68° |
| 2026-05-05 18:53 | 51.47302 | -0.39813 | 2055 ft | 178 kts | 47° |
| 2026-05-05 18:54 | 51.48157 | -0.38207 | 2408 ft | 201 kts | 48° |
| 2026-05-05 18:54 | 51.49119 | -0.36379 | 2823 ft | 227 kts | 48° |
| 2026-05-05 18:54 | 51.50188 | -0.34333 | 3449 ft | 247 kts | 49° |
| 2026-05-05 18:54 | 51.51309 | -0.32177 | 4401 ft | 254 kts | 49° |
| 2026-05-05 18:55 | 51.52323 | -0.29826 | 5368 ft | 262 kts | 64° |
| 2026-05-05 18:55 | 51.52977 | -0.27054 | 5828 ft | 266 kts | 68° |
| 2026-05-05 18:55 | 51.53883 | -0.24537 | 5976 ft | 263 kts | 46° |
| 2026-05-05 18:55 | 51.55365 | -0.22867 | 6010 ft | 262 kts | 21° |
| 2026-05-05 18:56 | 51.57162 | -0.22433 | 6391 ft | 266 kts | 356° |
| 2026-05-05 18:56 | 51.58988 | -0.22956 | 7345 ft | 267 kts | 349° |
| 2026-05-05 18:56 | 51.60828 | -0.23554 | 8240 ft | 272 kts | 348° |
| 2026-05-05 18:56 | 51.62620 | -0.24649 | 9078 ft | 280 kts | 331° |
| 2026-05-05 18:57 | 51.64318 | -0.26250 | 9939 ft | 284 kts | 330° |
| 2026-05-05 18:57 | 51.66080 | -0.27937 | 10417 ft | 305 kts | 329° |
| 2026-05-05 18:57 | 51.67968 | -0.29759 | 10817 ft | 324 kts | 329° |
| 2026-05-05 18:57 | 51.69929 | -0.31656 | 11518 ft | 331 kts | 329° |
| 2026-05-05 18:58 | 51.71919 | -0.33579 | 12289 ft | 335 kts | 329° |
| 2026-05-05 18:58 | 51.73932 | -0.35524 | 13070 ft | 338 kts | 328° |
| 2026-05-05 18:58 | 51.75931 | -0.37457 | 13791 ft | 341 kts | 328° |
| 2026-05-05 18:58 | 51.77987 | -0.39443 | 14504 ft | 345 kts | 329° |
| 2026-05-05 18:59 | 51.80066 | -0.41454 | 15205 ft | 349 kts | 329° |
| 2026-05-05 18:59 | 51.82163 | -0.43482 | 15875 ft | 353 kts | 329° |
| 2026-05-05 18:59 | 51.84289 | -0.45540 | 16537 ft | 357 kts | 329° |
| 2026-05-05 18:59 | 51.86426 | -0.47615 | 17191 ft | 360 kts | 329° |
| 2026-05-05 19:00 | 51.88562 | -0.49694 | 17812 ft | 364 kts | 328° |
| 2026-05-05 19:00 | 51.90752 | -0.51828 | 18434 ft | 368 kts | 328° |
| 2026-05-05 19:00 | 51.92950 | -0.53973 | 19047 ft | 371 kts | 328° |
| 2026-05-05 19:00 | 51.95173 | -0.56147 | 19675 ft | 374 kts | 328° |
| 2026-05-05 19:01 | 51.97412 | -0.58340 | 20281 ft | 378 kts | 328° |
| 2026-05-05 19:01 | 51.99671 | -0.60553 | 20865 ft | 381 kts | 328° |
| 2026-05-05 19:01 | 52.01952 | -0.62785 | 21427 ft | 384 kts | 327° |
| 2026-05-05 19:01 | 52.04255 | -0.65037 | 22003 ft | 388 kts | 327° |
| 2026-05-05 19:02 | 52.06572 | -0.67308 | 22528 ft | 391 kts | 326° |
| 2026-05-05 19:02 | 52.08908 | -0.69603 | 23055 ft | 394 kts | 326° |
| 2026-05-05 19:02 | 52.11269 | -0.71925 | 23558 ft | 397 kts | 326° |
| 2026-05-05 19:02 | 52.13643 | -0.74262 | 24048 ft | 400 kts | 326° |
| 2026-05-05 19:03 | 52.16038 | -0.76625 | 24525 ft | 403 kts | 326° |
| 2026-05-05 19:03 | 52.18413 | -0.78976 | 24966 ft | 407 kts | 326° |
| 2026-05-05 19:03 | 52.20856 | -0.81398 | 25407 ft | 410 kts | 326° |
| 2026-05-05 19:03 | 52.23303 | -0.83822 | 25832 ft | 413 kts | 326° |
| 2026-05-05 19:04 | 52.25774 | -0.86273 | 26262 ft | 416 kts | 326° |
| 2026-05-05 19:04 | 52.28225 | -0.88706 | 26661 ft | 419 kts | 326° |
| 2026-05-05 19:04 | 52.30727 | -0.91188 | 27081 ft | 422 kts | 326° |
| 2026-05-05 19:04 | 52.33253 | -0.93695 | 27491 ft | 425 kts | 326° |
| 2026-05-05 19:05 | 52.35806 | -0.96235 | 27897 ft | 428 kts | 326° |
| 2026-05-05 19:05 | 52.37491 | -0.97915 | 28152 ft | 430 kts | 326° |
| 2026-05-05 19:05 | 52.40069 | -1.00487 | 28544 ft | 434 kts | 326° |
| 2026-05-05 19:05 | 52.42657 | -1.03072 | 28923 ft | 436 kts | 326° |
| 2026-05-05 19:06 | 52.46107 | -1.06531 | 29414 ft | 440 kts | 326° |
| 2026-05-05 19:06 | 52.48722 | -1.09160 | 29775 ft | 443 kts | 326° |
| 2026-05-05 19:06 | 52.50503 | -1.10955 | 30014 ft | 444 kts | 326° |
| 2026-05-05 19:06 | 52.53115 | -1.13590 | 30353 ft | 447 kts | 326° |
| 2026-05-05 19:07 | 52.55774 | -1.16276 | 30685 ft | 449 kts | 326° |
| 2026-05-05 19:07 | 52.58450 | -1.18976 | 31010 ft | 451 kts | 326° |
| 2026-05-05 19:07 | 52.61126 | -1.21679 | 31324 ft | 453 kts | 326° |
| 2026-05-05 19:07 | 52.63836 | -1.24417 | 31632 ft | 455 kts | 326° |
| 2026-05-05 19:08 | 52.66536 | -1.27144 | 32014 ft | 455 kts | 326° |
| 2026-05-05 19:08 | 52.69240 | -1.29880 | 32461 ft | 454 kts | 326° |
| 2026-05-05 19:08 | 52.71897 | -1.32577 | 32884 ft | 453 kts | 326° |
| 2026-05-05 19:08 | 52.74577 | -1.35307 | 33306 ft | 452 kts | 326° |
| 2026-05-05 19:09 | 52.77253 | -1.38036 | 33723 ft | 451 kts | 326° |
| 2026-05-05 19:09 | 52.79926 | -1.40762 | 34130 ft | 450 kts | 326° |
| 2026-05-05 19:09 | 52.82590 | -1.43485 | 34534 ft | 449 kts | 326° |
| 2026-05-05 19:09 | 52.85253 | -1.46209 | 34923 ft | 449 kts | 326° |
| 2026-05-05 19:10 | 52.87875 | -1.48896 | 35285 ft | 448 kts | 326° |
| 2026-05-05 19:10 | 52.90534 | -1.51629 | 35646 ft | 448 kts | 326° |
| 2026-05-05 19:10 | 52.93215 | -1.54394 | 35943 ft | 449 kts | 326° |
| 2026-05-05 19:10 | 52.95833 | -1.57097 | 36017 ft | 447 kts | 326° |
| 2026-05-05 19:11 | 53.01087 | -1.62529 | 36020 ft | 444 kts | 326° |
| 2026-05-05 19:11 | 53.06457 | -1.67614 | 36018 ft | 445 kts | 336° |
| 2026-05-05 19:12 | 53.12276 | -1.71235 | 36016 ft | 446 kts | 338° |
| 2026-05-05 19:12 | 53.18053 | -1.74822 | 36017 ft | 445 kts | 338° |
| 2026-05-05 19:13 | 53.23854 | -1.78444 | 36019 ft | 445 kts | 338° |
| 2026-05-05 19:13 | 53.29667 | -1.82071 | 36025 ft | 445 kts | 338° |
| 2026-05-05 19:14 | 53.35476 | -1.85689 | 36025 ft | 444 kts | 338° |
| 2026-05-05 19:14 | 53.41232 | -1.89305 | 36025 ft | 444 kts | 337° |
| 2026-05-05 19:15 | 53.47010 | -1.92954 | 36030 ft | 444 kts | 337° |
| 2026-05-05 19:15 | 53.52788 | -1.96602 | 36032 ft | 443 kts | 337° |
| 2026-05-05 19:16 | 53.58563 | -2.00253 | 36030 ft | 443 kts | 337° |
| 2026-05-05 19:16 | 53.64332 | -2.03925 | 36032 ft | 442 kts | 337° |
| 2026-05-05 19:17 | 53.70048 | -2.07570 | 36033 ft | 442 kts | 337° |
| 2026-05-05 19:17 | 53.75762 | -2.11223 | 36030 ft | 441 kts | 337° |
| 2026-05-05 19:18 | 53.81479 | -2.15068 | 36034 ft | 441 kts | 336° |
| 2026-05-05 19:18 | 53.87161 | -2.19013 | 36046 ft | 441 kts | 335° |
| 2026-05-05 19:19 | 53.92816 | -2.22924 | 36051 ft | 441 kts | 336° |
| 2026-05-05 19:19 | 53.98522 | -2.26837 | 36055 ft | 442 kts | 336° |
| 2026-05-05 19:20 | 54.04231 | -2.30770 | 36055 ft | 441 kts | 336° |
| 2026-05-05 19:20 | 54.09920 | -2.34693 | 36051 ft | 441 kts | 336° |
| 2026-05-05 19:21 | 54.15579 | -2.38608 | 36048 ft | 440 kts | 335° |
| 2026-05-05 19:21 | 54.21254 | -2.42555 | 36052 ft | 440 kts | 335° |
| 2026-05-05 19:22 | 54.26940 | -2.46522 | 36052 ft | 440 kts | 335° |
| 2026-05-05 19:22 | 54.32577 | -2.50471 | 36054 ft | 440 kts | 335° |
| 2026-05-05 19:23 | 54.38238 | -2.54435 | 36071 ft | 440 kts | 335° |
| 2026-05-05 19:23 | 54.43915 | -2.58425 | 36072 ft | 440 kts | 335° |
| 2026-05-05 19:24 | 54.49591 | -2.62423 | 36074 ft | 440 kts | 335° |
| 2026-05-05 19:24 | 54.55256 | -2.66435 | 36073 ft | 440 kts | 335° |
| 2026-05-05 19:25 | 54.60877 | -2.70436 | 36072 ft | 439 kts | 335° |
| 2026-05-05 19:25 | 54.66533 | -2.74467 | 36074 ft | 439 kts | 335° |
| 2026-05-05 19:26 | 54.72199 | -2.78503 | 36079 ft | 439 kts | 334° |
| 2026-05-05 19:26 | 54.77813 | -2.82510 | 36081 ft | 439 kts | 334° |
| 2026-05-05 19:27 | 54.83470 | -2.86581 | 36084 ft | 439 kts | 334° |
| 2026-05-05 19:27 | 54.89110 | -2.90652 | 36084 ft | 439 kts | 334° |
| 2026-05-05 19:28 | 54.94752 | -2.94731 | 36089 ft | 439 kts | 334° |
| 2026-05-05 19:28 | 55.00389 | -2.98818 | 36089 ft | 439 kts | 334° |
| 2026-05-05 19:29 | 55.06002 | -3.02904 | 36091 ft | 439 kts | 334° |
| 2026-05-05 19:29 | 55.11644 | -3.07016 | 36097 ft | 438 kts | 334° |
| 2026-05-05 19:30 | 55.17273 | -3.11123 | 36100 ft | 438 kts | 334° |
| 2026-05-05 19:30 | 55.22859 | -3.15225 | 36100 ft | 438 kts | 334° |
| 2026-05-05 19:31 | 55.28482 | -3.19381 | 36099 ft | 437 kts | 334° |
| 2026-05-05 19:31 | 55.34105 | -3.23530 | 36097 ft | 437 kts | 333° |
| 2026-05-05 19:32 | 55.39686 | -3.27648 | 36099 ft | 437 kts | 333° |
| 2026-05-05 19:32 | 55.45289 | -3.31818 | 36103 ft | 436 kts | 333° |
| 2026-05-05 19:33 | 55.50647 | -3.36672 | 36106 ft | 429 kts | 320° |
| 2026-05-05 19:33 | 55.55151 | -3.43507 | 36103 ft | 426 kts | 315° |
| 2026-05-05 19:34 | 55.59535 | -3.50389 | 36099 ft | 426 kts | 315° |
| 2026-05-05 19:35 | 55.66174 | -3.60832 | 36100 ft | 425 kts | 315° |
| 2026-05-05 19:35 | 55.70602 | -3.67817 | 36101 ft | 425 kts | 315° |
| 2026-05-05 19:36 | 55.75004 | -3.74808 | 36103 ft | 424 kts | 315° |
| 2026-05-05 19:36 | 55.79400 | -3.81828 | 36107 ft | 424 kts | 314° |
| 2026-05-05 19:37 | 55.83761 | -3.88812 | 35952 ft | 424 kts | 314° |
| 2026-05-05 19:37 | 55.85952 | -3.92323 | 35702 ft | 423 kts | 314° |
| 2026-05-05 19:37 | 55.88147 | -3.95841 | 35451 ft | 423 kts | 314° |
| 2026-05-05 19:37 | 55.90333 | -3.99349 | 35195 ft | 423 kts | 314° |
| 2026-05-05 19:38 | 55.92519 | -4.02867 | 34485 ft | 426 kts | 314° |
| 2026-05-05 19:38 | 55.94724 | -4.06426 | 33683 ft | 429 kts | 314° |
| 2026-05-05 19:38 | 55.96937 | -4.10002 | 33146 ft | 426 kts | 314° |
| 2026-05-05 19:38 | 55.99123 | -4.13537 | 32658 ft | 421 kts | 314° |
| 2026-05-05 19:39 | 56.01259 | -4.16992 | 32162 ft | 418 kts | 314° |
| 2026-05-05 19:39 | 56.03429 | -4.20503 | 31651 ft | 414 kts | 314° |
| 2026-05-05 19:39 | 56.05552 | -4.23949 | 31149 ft | 410 kts | 314° |
| 2026-05-05 19:39 | 56.07649 | -4.27368 | 30649 ft | 406 kts | 314° |
| 2026-05-05 19:40 | 56.09722 | -4.30759 | 30153 ft | 402 kts | 314° |
| 2026-05-05 19:40 | 56.11895 | -4.33783 | 29663 ft | 403 kts | 325° |
| 2026-05-05 19:40 | 56.14430 | -4.35930 | 29160 ft | 405 kts | 338° |
| 2026-05-05 19:40 | 56.17201 | -4.36992 | 28618 ft | 410 kts | 351° |
| 2026-05-05 19:41 | 56.20057 | -4.36893 | 28073 ft | 414 kts | 3° |
| 2026-05-05 19:41 | 56.22906 | -4.36198 | 27525 ft | 412 kts | 4° |
| 2026-05-05 19:41 | 56.25743 | -4.35516 | 26999 ft | 410 kts | 4° |
| 2026-05-05 19:41 | 56.28570 | -4.34848 | 26493 ft | 407 kts | 4° |
| 2026-05-05 19:42 | 56.31336 | -4.34197 | 26008 ft | 404 kts | 4° |
| 2026-05-05 19:42 | 56.34127 | -4.33539 | 25519 ft | 401 kts | 4° |
| 2026-05-05 19:42 | 56.36892 | -4.32894 | 25041 ft | 398 kts | 4° |
| 2026-05-05 19:42 | 56.39637 | -4.32244 | 24566 ft | 396 kts | 4° |
| 2026-05-05 19:43 | 56.42326 | -4.31603 | 24098 ft | 393 kts | 4° |
| 2026-05-05 19:43 | 56.45041 | -4.30956 | 23605 ft | 392 kts | 4° |
| 2026-05-05 19:43 | 56.47738 | -4.30312 | 23132 ft | 389 kts | 4° |
| 2026-05-05 19:43 | 56.50415 | -4.29673 | 22679 ft | 385 kts | 4° |
| 2026-05-05 19:44 | 56.53062 | -4.29039 | 22213 ft | 382 kts | 4° |
| 2026-05-05 19:44 | 56.55687 | -4.28406 | 21734 ft | 379 kts | 4° |
| 2026-05-05 19:44 | 56.58290 | -4.27781 | 21265 ft | 376 kts | 4° |
| 2026-05-05 19:44 | 56.60874 | -4.27159 | 20778 ft | 372 kts | 3° |
| 2026-05-05 19:45 | 56.63436 | -4.26547 | 20308 ft | 369 kts | 3° |
| 2026-05-05 19:45 | 56.65947 | -4.25946 | 19816 ft | 366 kts | 3° |
| 2026-05-05 19:45 | 56.68466 | -4.25339 | 19330 ft | 363 kts | 3° |
| 2026-05-05 19:45 | 56.70953 | -4.24739 | 18859 ft | 359 kts | 3° |
| 2026-05-05 19:46 | 56.73417 | -4.24141 | 18391 ft | 355 kts | 3° |
| 2026-05-05 19:46 | 56.75850 | -4.23549 | 17919 ft | 352 kts | 3° |
| 2026-05-05 19:46 | 56.78275 | -4.22962 | 17447 ft | 348 kts | 3° |
| 2026-05-05 19:46 | 56.80641 | -4.22389 | 16985 ft | 344 kts | 3° |
| 2026-05-05 19:47 | 56.83001 | -4.21816 | 16524 ft | 341 kts | 3° |
| 2026-05-05 19:47 | 56.85351 | -4.21240 | 16060 ft | 338 kts | 3° |
| 2026-05-05 19:47 | 56.87674 | -4.20666 | 15608 ft | 335 kts | 4° |
| 2026-05-05 19:47 | 56.89975 | -4.20100 | 15151 ft | 332 kts | 4° |
| 2026-05-05 19:48 | 56.92251 | -4.19541 | 14706 ft | 329 kts | 4° |
| 2026-05-05 19:48 | 56.94516 | -4.18985 | 14263 ft | 326 kts | 4° |
| 2026-05-05 19:48 | 56.96726 | -4.18441 | 13809 ft | 324 kts | 4° |
| 2026-05-05 19:48 | 56.98951 | -4.17896 | 13375 ft | 321 kts | 4° |
| 2026-05-05 19:49 | 57.01161 | -4.17357 | 12933 ft | 318 kts | 4° |
| 2026-05-05 19:49 | 57.02639 | -4.16997 | 12642 ft | 316 kts | 4° |
| 2026-05-05 19:49 | 57.05500 | -4.16293 | 12075 ft | 312 kts | 5° |
| 2026-05-05 19:49 | 57.07646 | -4.15761 | 11648 ft | 309 kts | 4° |
| 2026-05-05 19:50 | 57.09762 | -4.15233 | 11227 ft | 306 kts | 5° |
| 2026-05-05 19:50 | 57.11160 | -4.14884 | 10952 ft | 304 kts | 5° |
| 2026-05-05 19:50 | 57.13249 | -4.14367 | 10538 ft | 301 kts | 5° |
| 2026-05-05 19:50 | 57.15306 | -4.13858 | 10285 ft | 293 kts | 5° |
| 2026-05-05 19:51 | 57.17283 | -4.13364 | 10115 ft | 283 kts | 5° |
| 2026-05-05 19:51 | 57.19224 | -4.12879 | 9902 ft | 277 kts | 5° |
| 2026-05-05 19:51 | 57.21151 | -4.12403 | 9420 ft | 282 kts | 6° |
| 2026-05-05 19:51 | 57.23070 | -4.11926 | 8905 ft | 278 kts | 6° |
| 2026-05-05 19:52 | 57.24985 | -4.11450 | 8381 ft | 274 kts | 6° |
| 2026-05-05 19:52 | 57.26872 | -4.10980 | 7863 ft | 272 kts | 6° |
| 2026-05-05 19:52 | 57.28702 | -4.10551 | 7673 ft | 257 kts | 2° |
| 2026-05-05 19:52 | 57.30368 | -4.11222 | 7479 ft | 241 kts | 327° |
| 2026-05-05 19:53 | 57.31470 | -4.13430 | 7244 ft | 233 kts | 299° |
| 2026-05-05 19:53 | 57.31982 | -4.16229 | 6856 ft | 233 kts | 286° |
| 2026-05-05 19:53 | 57.32450 | -4.19070 | 6514 ft | 226 kts | 291° |
| 2026-05-05 19:53 | 57.33022 | -4.21792 | 5942 ft | 229 kts | 295° |
| 2026-05-05 19:54 | 57.33716 | -4.24463 | 5334 ft | 233 kts | 300° |
| 2026-05-05 19:54 | 57.34534 | -4.27080 | 4716 ft | 235 kts | 304° |
| 2026-05-05 19:54 | 57.35454 | -4.29572 | 4266 ft | 230 kts | 308° |
| 2026-05-05 19:54 | 57.36401 | -4.31815 | 4099 ft | 212 kts | 311° |
| 2026-05-05 19:55 | 57.37348 | -4.33856 | 4010 ft | 206 kts | 313° |
| 2026-05-05 19:55 | 57.38418 | -4.35493 | 3926 ft | 201 kts | 342° |
| 2026-05-05 19:55 | 57.39780 | -4.35452 | 3871 ft | 200 kts | 24° |
| 2026-05-05 19:55 | 57.40824 | -4.33754 | 3817 ft | 202 kts | 49° |
| 2026-05-05 19:56 | 57.41732 | -4.31784 | 3569 ft | 198 kts | 48° |
| 2026-05-05 19:56 | 57.42615 | -4.29889 | 3336 ft | 191 kts | 48° |
| 2026-05-05 19:56 | 57.43462 | -4.28067 | 3115 ft | 184 kts | 48° |
| 2026-05-05 19:56 | 57.44286 | -4.26295 | 2854 ft | 179 kts | 48° |
| 2026-05-05 19:57 | 57.45097 | -4.24551 | 2620 ft | 178 kts | 49° |
| 2026-05-05 19:57 | 57.45881 | -4.22861 | 2388 ft | 166 kts | 49° |
| 2026-05-05 19:57 | 57.46608 | -4.21294 | 2171 ft | 160 kts | 49° |
| 2026-05-05 19:57 | 57.47331 | -4.19734 | 1971 ft | 158 kts | 49° |
| 2026-05-05 19:58 | 57.48044 | -4.18196 | 1768 ft | 152 kts | 49° |
| 2026-05-05 19:58 | 57.48689 | -4.16803 | 1565 ft | 134 kts | 50° |
| 2026-05-05 19:58 | 57.49282 | -4.15523 | 1388 ft | 128 kts | 50° |
| 2026-05-05 19:58 | 57.49858 | -4.14277 | 1226 ft | 126 kts | 50° |
| 2026-05-05 19:59 | 57.50428 | -4.13044 | 1061 ft | 125 kts | 50° |
| 2026-05-05 19:59 | 57.50994 | -4.11818 | 895 ft | 125 kts | 50° |
| 2026-05-05 19:59 | 57.51557 | -4.10596 | 719 ft | 124 kts | 50° |
| 2026-05-05 19:59 | 57.52117 | -4.09373 | 535 ft | 124 kts | 50° |
| 2026-05-05 20:00 | 57.52681 | -4.08163 | 377 ft | 124 kts | 50° |
| 2026-05-05 20:00 | 57.53244 | -4.06950 | 233 ft | 124 kts | 50° |
| 2026-05-05 20:00 | 57.53802 | -4.05728 | 50 ft | 123 kts | 49° |
| 2026-05-05 20:00 | 57.54278 | -4.04694 | 35 ft | 72 kts | 49° |
| 2026-05-05 20:01 | 57.54506 | -4.04197 | 31 ft | 41 kts | 49° |
| 2026-05-05 20:01 | 57.54640 | -4.03898 | 30 ft | 18 kts | 57° |
| 2026-05-05 20:01 | 57.54677 | -4.03838 | 30 ft | 4 kts | 316° |
| 2026-05-05 20:01 | 57.54659 | -4.03881 | 30 ft | 7 kts | 225° |
| 2026-05-05 20:02 | 57.54608 | -4.03977 | 29 ft | 14 kts | 226° |
| 2026-05-05 20:02 | 57.54532 | -4.04141 | 31 ft | 18 kts | 229° |
| 2026-05-05 20:02 | 57.54444 | -4.04333 | 31 ft | 20 kts | 229° |
| 2026-05-05 20:02 | 57.54347 | -4.04543 | 35 ft | 23 kts | 230° |
| 2026-05-05 20:03 | 57.54250 | -4.04771 | 35 ft | 22 kts | 247° |
| 2026-05-05 20:03 | 57.54285 | -4.05044 | 37 ft | 22 kts | 290° |
| 2026-05-05 20:03 | 57.54337 | -4.05315 | 34 ft | 24 kts | 289° |
| 2026-05-05 20:03 | 57.54395 | -4.05619 | 35 ft | 24 kts | 289° |
| 2026-05-05 20:04 | 57.54445 | -4.05885 | 35 ft | 14 kts | 289° |
| 2026-05-05 20:04 | 57.54464 | -4.06036 | 36 ft | 11 kts | 253° |
| 2026-05-05 20:04 | 57.54406 | -4.06154 | 36 ft | 14 kts | 228° |
| 2026-05-05 20:04 | 57.54344 | -4.06248 | 34 ft | 11 kts | 192° |
| 2026-05-05 20:05 | 57.54275 | -4.06260 | 36 ft | 9 kts | 186° |
| 2026-05-05 20:05 | 57.54224 | -4.06242 | 36 ft | 7 kts | 155° |
| 2026-05-05 20:05 | 57.54182 | -4.06204 | 36 ft | 7 kts | 155° |
| 2026-05-05 20:05 | 57.54141 | -4.06170 | 34 ft | 6 kts | 156° |
| 2026-05-05 20:06 | 57.54100 | -4.06139 | 36 ft | 7 kts | 163° |
| 2026-05-05 20:06 | 57.54048 | -4.06145 | 36 ft | 7 kts | 187° |
| 2026-05-05 20:06 | 57.54019 | -4.06152 | 36 ft | 3 kts | 185° |
| 2026-05-05 20:07 | 57.54017 | -4.06152 | 36 ft | 1 kts | 184° |
| 2026-05-05 20:07 | 57.54002 | -4.06153 | 36 ft | 5 kts | 183° |
| 2026-05-05 20:07 | 57.53944 | -4.06161 | 36 ft | 11 kts | 184° |
| 2026-05-05 20:08 | 57.53870 | -4.06174 | 36 ft | 9 kts | 186° |
| 2026-05-05 20:08 | 57.53829 | -4.06185 | 36 ft | 5 kts | 195° |
| 2026-05-05 20:08 | 57.53816 | -4.06234 | 35 ft | 4 kts | 274° |
| 2026-05-05 20:08 | 57.53818 | -4.06271 | 36 ft | 2 kts | 275° |
| 2026-05-05 20:09 | 57.53819 | -4.06283 | 36 ft | 1 kts | 275° |
| 2026-05-05 20:09 | 57.53819 | -4.06284 | 36 ft | 0 kts | 275° |